createdAt,value
2022-08-03T00:00:42.879Z,100794.25
2022-08-03T00:03:11.758Z,100705.66
2022-08-03T00:05:40.957Z,100764.75
2022-08-03T00:08:31.475Z,100786.66
2022-08-03T00:11:02.224Z,100788.78
2022-08-03T00:13:30.991Z,100742.94
2022-08-03T00:15:59.846Z,100775.88
2022-08-03T00:18:28.903Z,100777.94
2022-08-03T00:20:57.828Z,100773.75
2022-08-03T00:23:29.412Z,100781.03
2022-08-03T00:26:17.545Z,100777.66
2022-08-03T00:28:46.346Z,100769.69
2022-08-03T00:31:15.245Z,100766.06
2022-08-03T00:33:59.511Z,100766.94
2022-08-03T00:36:29.282Z,100766.84
2022-08-03T00:38:58.583Z,100772.31
2022-08-03T00:41:28.754Z,100546.44
2022-08-03T00:43:57.877Z,100777.72
2022-08-03T00:46:26.844Z,100766.13
2022-08-03T00:48:55.871Z,100540.41
2022-08-03T00:51:25.621Z,100765.41
2022-08-03T00:53:54.619Z,100768.31
2022-08-03T00:56:23.640Z,100763.28
2022-08-03T00:58:58.241Z,100759.13
2022-08-03T01:01:27.320Z,100759.41
2022-08-03T01:04:01.421Z,100743.38
2022-08-03T01:06:44.771Z,100757.97
2022-08-03T01:09:23.733Z,100722.44
2022-08-03T01:12:02.038Z,100636.50
2022-08-03T01:14:48.080Z,100759.03
2022-08-03T01:17:27.125Z,100733.13
2022-08-03T01:20:03.924Z,100737.63
2022-08-03T01:23:11.940Z,100737.50
2022-08-03T01:26:04.799Z,100720.50
2022-08-03T01:29:05.006Z,100760.47
2022-08-03T01:33:00.085Z,100764.13
2022-08-03T01:34:42.761Z,100722.44
2022-08-03T01:37:17.449Z,100763.53
2022-08-03T01:39:47.128Z,100771.75
2022-08-03T01:42:19.736Z,100764.88
2022-08-03T01:44:52.185Z,100762.41
2022-08-03T01:47:25.312Z,100762.41
2022-08-03T01:49:57.727Z,100730.06
2022-08-03T01:52:28.607Z,100761.53
2022-08-03T01:54:59.643Z,100737.34
2022-08-03T01:57:31.131Z,100762.66
2022-08-03T02:00:06.652Z,100702.69
2022-08-03T02:02:45.335Z,100764.69
2022-08-03T02:05:17.050Z,100761.31
2022-08-03T02:07:49.467Z,100764.13
2022-08-03T02:10:34.239Z,100757.06
2022-08-03T02:13:08.452Z,100737.19
2022-08-03T02:15:39.794Z,100709.44
2022-08-03T02:18:12.762Z,100755.75
2022-08-03T02:20:44.741Z,100756.31
2022-08-03T02:23:14.085Z,100756.25
2022-08-03T02:25:55.127Z,100751.78
2022-08-03T02:28:33.603Z,100677.03
2022-08-03T02:31:08.423Z,100750.31
2022-08-03T02:33:45.580Z,100694.53
2022-08-03T02:36:17.226Z,100732.69
2022-08-03T02:38:53.385Z,100712.19
2022-08-03T02:41:31.918Z,100747.88
2022-08-03T02:44:09.660Z,100582.69
2022-08-03T02:46:44.628Z,100740.97
2022-08-03T02:49:42.709Z,100719.84
2022-08-03T02:52:15.838Z,100744.44
2022-08-03T02:54:49.750Z,100742.22
2022-08-03T02:57:19.804Z,100700.63
2022-08-03T02:59:49.539Z,100751.16
2022-08-03T03:02:20.220Z,100750.28
2022-08-03T03:05:51.108Z,100744.28
2022-08-03T03:07:52.179Z,100757.69
2022-08-03T03:10:24.088Z,100708.84
2022-08-03T03:12:57.770Z,100752.41
2022-08-03T03:15:29.175Z,100753.34
2022-08-03T03:17:59.957Z,100752.47
2022-08-03T03:20:32.923Z,100748.13
2022-08-03T03:23:02.682Z,100749.94
2022-08-03T03:25:34.619Z,100752.59
2022-08-03T03:28:06.461Z,100754.34
2022-08-03T03:30:36.194Z,100630.91
2022-08-03T03:33:05.225Z,100749.88
2022-08-03T03:35:39.040Z,100747.06
2022-08-03T03:38:08.590Z,100721.13
2022-08-03T03:40:37.812Z,100754.03
2022-08-03T03:43:10.251Z,100744.22
2022-08-03T03:45:39.589Z,100752.03
2022-08-03T03:48:12.116Z,100704.13
2022-08-03T03:50:42.707Z,100750.78
2022-08-03T03:53:13.367Z,100752.41
2022-08-03T03:55:57.861Z,100745.38
2022-08-03T03:58:32.832Z,100752.16
2022-08-03T04:01:02.095Z,100714.47
2022-08-03T04:03:31.237Z,100751.72
2022-08-03T04:06:19.133Z,100749.63
2022-08-03T04:09:08.497Z,100753.84
2022-08-03T04:11:44.802Z,100721.38
2022-08-03T04:14:19.243Z,100704.66
2022-08-03T04:16:52.991Z,100764.25
2022-08-03T04:19:31.878Z,100733.44
2022-08-03T04:22:06.977Z,100765.47
2022-08-03T04:24:42.478Z,100558.38
2022-08-03T04:27:17.811Z,100759.47
2022-08-03T04:29:52.645Z,100766.44
2022-08-03T04:32:25.377Z,100762.91
2022-08-03T04:34:54.864Z,100765.28
2022-08-03T04:37:36.933Z,100714.72
2022-08-03T04:40:11.873Z,100758.81
2022-08-03T04:42:43.313Z,100678.69
2022-08-03T04:45:16.278Z,100780.59
2022-08-03T04:47:45.841Z,100762.59
2022-08-03T04:50:18.205Z,100766.66
2022-08-03T04:53:08.084Z,100760.34
2022-08-03T04:55:37.446Z,100782.28
2022-08-03T04:58:07.317Z,100739.22
2022-08-03T05:00:36.575Z,100784.22
2022-08-03T05:03:23.770Z,100769.16
2022-08-03T05:05:53.477Z,100781.53
2022-08-03T05:08:46.219Z,100645.31
2022-08-03T05:11:16.635Z,100741.47
2022-08-03T05:13:45.375Z,100767.47
2022-08-03T05:16:15.318Z,100776.06
2022-08-03T05:18:45.149Z,100794.56
2022-08-03T05:21:16.839Z,100791.72
2022-08-03T05:23:47.070Z,100784.28
2022-08-03T05:26:15.884Z,100804.13
2022-08-03T05:28:51.278Z,100755.84
2022-08-03T05:31:20.968Z,100797.59
2022-08-03T05:33:49.758Z,100795.19
2022-08-03T05:36:18.446Z,100778.88
2022-08-03T05:38:48.464Z,100793.03
2022-08-03T05:41:21.247Z,100789.81
2022-08-03T05:43:54.059Z,100766.75
2022-08-03T05:46:23.841Z,100796.47
2022-08-03T05:48:53.007Z,100799.53
2022-08-03T05:51:22.458Z,100793.53
2022-08-03T05:53:52.573Z,100793.53
2022-08-03T05:56:25.456Z,100775.53
2022-08-03T05:58:54.727Z,100805.06
2022-08-03T06:01:23.697Z,100803.75
2022-08-03T06:03:53.218Z,100758.34
2022-08-03T06:06:23.136Z,100816.31
2022-08-03T06:08:53.364Z,100789.50
2022-08-03T06:11:22.453Z,100810.72
2022-08-03T06:13:51.161Z,100808.31
2022-08-03T06:16:19.968Z,100790.56
2022-08-03T06:18:48.893Z,100818.03
2022-08-03T06:21:17.613Z,100780.13
2022-08-03T06:23:54.054Z,100813.25
2022-08-03T06:26:29.839Z,100805.31
2022-08-03T06:28:59.312Z,100810.00
2022-08-03T06:31:32.872Z,100809.41
2022-08-03T06:34:32.099Z,100818.56
2022-08-03T06:36:57.439Z,100811.19
2022-08-03T06:39:30.738Z,100817.72
2022-08-03T06:42:00.845Z,100818.00
2022-08-03T06:44:29.577Z,100820.84
2022-08-03T06:46:58.799Z,100808.72
2022-08-03T06:49:27.854Z,100819.84
2022-08-03T06:52:03.406Z,100822.50
2022-08-03T06:54:33.541Z,100820.91
2022-08-03T06:57:03.675Z,100779.75
2022-08-03T07:00:10.467Z,100824.25
2022-08-03T07:02:21.458Z,100828.88
2022-08-03T07:04:50.877Z,100820.28
2022-08-03T07:07:20.792Z,100827.78
2022-08-03T07:09:57.020Z,100829.50
2022-08-03T07:12:29.813Z,100780.56
2022-08-03T07:15:01.686Z,100819.41
2022-08-03T07:17:34.142Z,100817.09
2022-08-03T07:20:07.784Z,100810.19
2022-08-03T07:22:37.314Z,100775.94
2022-08-03T07:25:07.370Z,100811.91
2022-08-03T07:27:38.596Z,100802.38
2022-08-03T07:30:09.928Z,100775.91
2022-08-03T07:32:50.478Z,100816.31
2022-08-03T07:35:25.223Z,100814.50
2022-08-03T07:37:55.151Z,100820.75
2022-08-03T07:40:30.676Z,100814.44
2022-08-03T07:43:04.505Z,100792.91
2022-08-03T07:45:35.212Z,100812.69
2022-08-03T07:48:10.138Z,100811.16
2022-08-03T07:50:42.924Z,100791.34
2022-08-03T07:53:12.735Z,100724.28
2022-08-03T07:55:43.357Z,100774.06
2022-08-03T07:58:21.941Z,100777.41
2022-08-03T08:00:56.665Z,100802.63
2022-08-03T08:03:27.406Z,100799.03
2022-08-03T08:05:58.141Z,100752.06
2022-08-03T08:08:31.649Z,100693.28
2022-08-03T08:11:02.079Z,100658.72
2022-08-03T08:13:36.167Z,100671.38
2022-08-03T08:16:14.163Z,100779.44
2022-08-03T08:18:49.973Z,100556.41
2022-08-03T08:21:22.592Z,100765.38
2022-08-03T08:23:57.822Z,100785.53
2022-08-03T08:26:28.807Z,100761.50
2022-08-03T08:29:00.311Z,100755.94
2022-08-03T08:31:30.804Z,100783.88
2022-08-03T08:34:05.796Z,100763.78
2022-08-03T08:36:38.401Z,100786.41
2022-08-03T08:39:07.326Z,100771.44
2022-08-03T08:41:37.131Z,100791.56
2022-08-03T08:44:10.344Z,100783.41
2022-08-03T08:46:42.025Z,100787.31
2022-08-03T08:49:14.399Z,100784.34
2022-08-03T08:51:59.514Z,100782.75
2022-08-03T08:54:34.849Z,100789.00
2022-08-03T08:57:26.599Z,100782.69
2022-08-03T09:00:00.314Z,100792.34
2022-08-03T09:02:33.225Z,100797.47
2022-08-03T09:05:07.632Z,100790.50
2022-08-03T09:07:38.908Z,100785.31
2022-08-03T09:10:13.647Z,100792.44
2022-08-03T09:12:47.433Z,100787.88
2022-08-03T09:15:26.222Z,100739.22
2022-08-03T09:17:58.823Z,100781.75
2022-08-03T09:20:33.004Z,100756.47
2022-08-03T09:23:24.934Z,100773.53
2022-08-03T09:26:02.712Z,100765.63
2022-08-03T09:29:00.518Z,100749.75
2022-08-03T09:31:37.494Z,100783.72
2022-08-03T09:34:08.239Z,100784.63
2022-08-03T09:36:39.887Z,100779.03
2022-08-03T09:39:12.036Z,100764.66
2022-08-03T09:41:42.490Z,100778.28
2022-08-03T09:44:24.618Z,100774.00
2022-08-03T09:46:57.344Z,100770.28
2022-08-03T09:49:26.436Z,100766.56
2022-08-03T09:52:31.569Z,100715.50
2022-08-03T09:54:46.465Z,100722.28
2022-08-03T09:57:26.077Z,100765.88
2022-08-03T10:00:08.449Z,100760.00
2022-08-03T10:02:45.980Z,100759.13
2022-08-03T10:05:17.705Z,100749.41
2022-08-03T10:07:50.511Z,100731.47
2022-08-03T10:10:31.199Z,100767.63
2022-08-03T10:13:02.304Z,100731.50
2022-08-03T10:16:23.720Z,100758.88
2022-08-03T10:18:21.767Z,100749.97
2022-08-03T10:20:56.801Z,100747.66
2022-08-03T10:23:27.832Z,100733.59
2022-08-03T10:26:04.501Z,100702.78
2022-08-03T10:28:44.361Z,100744.28
2022-08-03T10:31:15.854Z,100742.03
2022-08-03T10:33:53.446Z,100731.41
2022-08-03T10:36:25.748Z,100738.41
2022-08-03T10:38:57.188Z,100737.06
2022-08-03T10:41:34.419Z,100739.06
2022-08-03T10:44:09.415Z,100729.88
2022-08-03T10:46:44.809Z,100737.44
2022-08-03T10:49:20.688Z,100736.00
2022-08-03T10:52:11.379Z,100698.28
2022-08-03T10:55:03.326Z,100727.91
2022-08-03T10:57:58.486Z,100715.56
2022-08-03T11:00:30.473Z,100708.06
2022-08-03T11:03:12.026Z,100719.66
2022-08-03T11:05:44.663Z,100712.22
2022-08-03T11:08:35.001Z,100698.34
2022-08-03T11:11:29.581Z,100708.97
2022-08-03T11:14:02.882Z,100702.78
2022-08-03T11:16:35.087Z,100703.41
2022-08-03T11:19:07.102Z,100700.53
2022-08-03T11:21:59.026Z,100708.41
2022-08-03T11:25:04.639Z,100701.88
2022-08-03T11:27:34.700Z,100706.78
2022-08-03T11:30:08.049Z,100672.84
2022-08-03T11:33:01.532Z,100699.16
2022-08-03T11:35:33.868Z,100691.66
2022-08-03T11:38:10.680Z,100699.72
2022-08-03T11:40:45.686Z,100691.03
2022-08-03T11:43:48.041Z,100676.09
2022-08-03T11:46:29.640Z,100689.81
2022-08-03T11:49:10.876Z,100701.50
2022-08-03T11:51:41.076Z,100692.84
2022-08-03T11:54:11.499Z,100678.16
2022-08-03T11:56:49.960Z,100684.56
2022-08-03T11:59:22.170Z,100684.22
2022-08-03T12:01:52.033Z,100639.81
2022-08-03T12:04:20.686Z,100684.91
2022-08-03T12:07:04.507Z,100681.06
2022-08-03T12:09:36.346Z,100675.53
2022-08-03T12:12:05.933Z,100677.78
2022-08-03T12:14:49.327Z,100685.41
2022-08-03T12:17:20.834Z,100676.09
2022-08-03T12:19:49.710Z,100658.13
2022-08-03T12:22:31.936Z,100671.25
2022-08-03T12:25:02.109Z,100668.66
2022-08-03T12:27:30.838Z,100649.50
2022-08-03T12:30:03.214Z,100665.34
2022-08-03T12:32:32.809Z,100662.09
2022-08-03T12:35:04.535Z,100617.75
2022-08-03T12:37:33.829Z,100643.13
2022-08-03T12:40:10.405Z,100661.09
2022-08-03T12:42:41.304Z,100633.34
2022-08-03T12:45:25.121Z,100648.41
2022-08-03T12:47:57.291Z,100652.38
2022-08-03T12:50:31.483Z,100643.66
2022-08-03T12:53:01.849Z,100640.91
2022-08-03T12:55:56.537Z,100593.34
2022-08-03T12:58:35.488Z,100636.69
2022-08-03T13:01:09.517Z,100646.28
2022-08-03T13:03:49.612Z,100639.78
2022-08-03T13:06:21.404Z,100633.56
2022-08-03T13:08:51.859Z,100641.09
2022-08-03T13:11:53.610Z,100597.41
2022-08-03T13:14:20.012Z,100456.09
2022-08-03T13:16:49.905Z,100626.88
2022-08-03T13:19:18.726Z,100642.84
2022-08-03T13:22:03.240Z,100636.34
2022-08-03T13:24:34.390Z,100644.75
2022-08-03T13:28:01.340Z,100635.53
2022-08-03T13:29:56.027Z,100625.75
2022-08-03T13:32:25.180Z,100614.97
2022-08-03T13:34:53.969Z,100622.00
2022-08-03T13:37:23.309Z,100634.66
2022-08-03T13:39:58.914Z,100634.66
2022-08-03T13:42:32.707Z,100623.88
2022-08-03T13:45:02.508Z,100624.72
2022-08-03T13:47:31.632Z,100623.72
2022-08-03T13:50:02.885Z,100587.75
2022-08-03T13:52:34.163Z,100622.00
2022-08-03T13:55:05.615Z,100616.34
2022-08-03T13:58:02.399Z,100615.81
2022-08-03T14:00:29.022Z,100608.78
2022-08-03T14:03:06.717Z,100586.56
2022-08-03T14:05:41.974Z,100603.13
2022-08-03T14:08:11.183Z,100608.13
2022-08-03T14:10:43.124Z,100611.03
2022-08-03T14:13:17.932Z,100600.75
2022-08-03T14:15:49.955Z,100603.16
2022-08-03T14:18:29.239Z,100592.88
2022-08-03T14:21:06.312Z,100597.50
2022-08-03T14:23:37.703Z,100565.81
2022-08-03T14:26:07.321Z,100599.38
2022-08-03T14:28:37.822Z,100541.16
2022-08-03T14:31:08.343Z,100522.66
2022-08-03T14:33:55.418Z,100598.88
2022-08-03T14:36:24.269Z,100590.66
2022-08-03T14:38:54.154Z,100588.06
2022-08-03T14:41:24.864Z,100589.47
2022-08-03T14:44:00.621Z,100588.06
2022-08-03T14:46:31.316Z,100578.50
2022-08-03T14:50:34.121Z,100587.59
2022-08-03T14:51:53.528Z,100542.00
2022-08-03T14:54:23.743Z,100587.06
2022-08-03T14:56:52.999Z,100577.81
2022-08-03T14:59:22.988Z,100452.00
2022-08-03T15:02:02.999Z,100579.19
2022-08-03T15:04:35.325Z,100568.41
2022-08-03T15:07:04.019Z,100565.13
2022-08-03T15:09:33.606Z,100574.03
2022-08-03T15:12:02.772Z,100568.06
2022-08-03T15:14:33.295Z,100565.16
2022-08-03T15:17:03.667Z,100324.78
2022-08-03T15:20:02.037Z,100556.25
2022-08-03T15:22:25.155Z,100527.66
2022-08-03T15:24:56.116Z,100551.44
2022-08-03T15:27:26.068Z,100544.44
2022-08-03T15:30:07.562Z,100537.59
2022-08-03T15:32:38.458Z,100545.28
2022-08-03T15:35:07.944Z,100526.47
2022-08-03T15:37:36.491Z,100549.94
2022-08-03T15:40:06.556Z,100523.34
2022-08-03T15:42:35.934Z,100505.75
2022-08-03T15:45:08.245Z,100493.78
2022-08-03T15:47:37.137Z,100542.22
2022-08-03T15:50:09.825Z,100521.84
2022-08-03T15:52:38.726Z,100362.56
2022-08-03T15:55:08.857Z,100504.22
2022-08-03T15:59:03.614Z,100542.72
2022-08-03T16:00:33.456Z,100513.81
2022-08-03T16:03:03.377Z,100535.34
2022-08-03T16:05:32.162Z,100537.06
2022-08-03T16:08:04.082Z,100536.22
2022-08-03T16:10:33.902Z,100494.81
2022-08-03T16:13:02.775Z,100524.91
2022-08-03T16:15:33.039Z,100531.56
2022-08-03T16:18:07.490Z,100536.72
2022-08-03T16:20:36.380Z,100525.38
2022-08-03T16:23:11.346Z,100522.09
2022-08-03T16:25:42.548Z,100521.72
2022-08-03T16:28:15.014Z,100498.50
2022-08-03T16:30:47.991Z,100499.00
2022-08-03T16:33:18.117Z,100520.88
2022-08-03T16:35:49.699Z,100495.59
2022-08-03T16:38:19.633Z,100520.50
2022-08-03T16:40:52.152Z,100454.13
2022-08-03T16:43:23.269Z,100471.75
2022-08-03T16:45:54.154Z,100523.47
2022-08-03T16:48:22.758Z,100289.66
2022-08-03T16:50:51.374Z,100475.22
2022-08-03T16:53:51.556Z,100519.72
2022-08-03T16:56:10.788Z,100518.75
2022-08-03T16:58:42.375Z,100526.88
2022-08-03T17:01:21.862Z,100529.81
2022-08-03T17:04:01.393Z,100532.19
2022-08-03T17:06:37.696Z,100454.47
2022-08-03T17:09:09.945Z,100529.69
2022-08-03T17:11:47.270Z,100531.22
2022-08-03T17:14:21.939Z,100531.81
2022-08-03T17:16:58.224Z,100537.88
2022-08-03T17:19:28.108Z,100534.63
2022-08-03T17:22:04.531Z,100531.91
2022-08-03T17:24:37.044Z,100513.94
2022-08-03T17:28:42.129Z,100533.59
2022-08-03T17:30:10.435Z,100530.78
2022-08-03T17:32:52.674Z,100531.91
2022-08-03T17:35:36.872Z,100536.66
2022-08-03T17:38:13.844Z,100539.22
2022-08-03T17:40:48.243Z,100534.03
2022-08-03T17:44:13.018Z,100526.34
2022-08-03T17:46:10.848Z,100538.94
2022-08-03T17:48:42.503Z,100542.00
2022-08-03T17:51:17.965Z,100541.38
2022-08-03T17:53:54.274Z,100530.31
2022-08-03T17:56:42.517Z,100511.91
2022-08-03T17:59:50.593Z,100544.50
2022-08-03T18:02:50.636Z,100552.53
2022-08-03T18:05:22.247Z,100547.72
2022-08-03T18:07:59.355Z,100548.88
2022-08-03T18:10:49.623Z,100551.38
2022-08-03T18:13:25.959Z,100556.69
2022-08-03T18:16:04.511Z,100539.97
2022-08-03T18:18:40.803Z,100547.97
2022-08-03T18:21:16.671Z,100517.00
2022-08-03T18:23:50.090Z,100556.91
2022-08-03T18:26:21.646Z,100554.56
2022-08-03T18:28:53.736Z,100555.66
2022-08-03T18:31:33.136Z,100495.00
2022-08-03T18:34:32.915Z,100559.28
2022-08-03T18:37:08.175Z,100553.75
2022-08-03T18:39:49.480Z,100488.13
2022-08-03T18:42:26.216Z,100559.41
2022-08-03T18:44:56.451Z,100563.84
2022-08-03T18:47:55.323Z,100561.53
2022-08-03T18:50:35.616Z,100554.59
2022-08-03T18:53:19.741Z,100562.22
2022-08-03T18:56:02.429Z,100552.09
2022-08-03T18:58:52.286Z,100559.22
2022-08-03T19:01:59.845Z,100569.81
2022-08-03T19:04:35.427Z,100567.72
2022-08-03T19:07:08.054Z,100560.63
2022-08-03T19:09:49.423Z,100564.22
2022-08-03T19:12:30.863Z,100562.03
2022-08-03T19:15:10.434Z,100525.22
2022-08-03T19:17:50.362Z,100486.66
2022-08-03T19:20:25.150Z,100566.41
2022-08-03T19:23:13.914Z,100565.09
2022-08-03T19:25:44.542Z,100557.06
2022-08-03T19:28:13.145Z,100569.13
2022-08-03T19:30:53.392Z,100512.34
2022-08-03T19:33:25.744Z,100568.56
2022-08-03T19:35:59.476Z,100574.13
2022-08-03T19:38:29.913Z,100571.19
2022-08-03T19:41:03.772Z,100565.06
2022-08-03T19:43:52.499Z,100565.34
2022-08-03T19:46:30.379Z,100493.53
2022-08-03T19:49:04.961Z,100562.50
2022-08-03T19:52:00.577Z,100517.34
2022-08-03T19:54:52.829Z,100509.13
2022-08-03T19:57:27.257Z,100552.16
2022-08-03T19:59:57.983Z,100554.75
2022-08-03T20:02:29.740Z,100565.09
2022-08-03T20:05:02.284Z,100565.63
2022-08-03T20:07:34.489Z,100513.97
2022-08-03T20:10:08.983Z,100479.50
2022-08-03T20:12:41.210Z,100553.59
2022-08-03T20:15:11.098Z,100537.34
2022-08-03T20:23:37.194Z,100555.41
2022-08-03T20:26:09.385Z,100540.28
2022-08-03T20:28:50.539Z,100550.09
2022-08-03T20:31:30.623Z,100560.44
2022-08-03T20:34:06.541Z,100551.19
2022-08-03T20:36:36.189Z,100552.91
2022-08-03T20:39:07.714Z,100531.31
2022-08-03T20:41:38.031Z,100549.78
2022-08-03T20:44:09.770Z,100545.06
2022-08-03T20:46:50.267Z,100522.72
2022-08-03T20:59:02.417Z,100551.75
2022-08-03T21:01:36.273Z,100547.75
2022-08-03T21:04:11.047Z,100550.06
2022-08-03T21:06:53.127Z,100500.47
2022-08-03T21:09:33.412Z,100554.31
2022-08-03T21:12:17.933Z,100551.09
2022-08-03T21:15:00.533Z,100558.06
2022-08-03T21:17:42.806Z,100551.22
2022-08-03T21:20:14.307Z,100551.38
2022-08-03T21:22:50.220Z,100543.69
2022-08-03T21:25:24.382Z,100548.41
2022-08-03T21:27:53.871Z,100548.66
2022-08-03T21:30:25.075Z,100558.59
2022-08-03T21:32:57.966Z,100553.41
2022-08-03T21:35:27.793Z,100556.44
2022-08-03T21:38:10.274Z,100341.38
2022-08-03T21:40:40.240Z,100555.31
2022-08-03T21:43:09.640Z,100555.78
2022-08-03T21:45:49.490Z,100559.56
2022-08-03T21:48:21.480Z,100550.69
2022-08-03T21:50:53.001Z,100555.56
2022-08-03T21:53:22.353Z,100495.06
2022-08-03T21:58:32.224Z,100553.53
2022-08-03T22:01:05.551Z,100532.56
2022-08-03T22:03:54.116Z,100545.00
2022-08-03T22:06:23.649Z,100557.22
2022-08-03T22:08:57.005Z,100562.81
2022-08-03T22:11:26.660Z,100562.03
2022-08-03T22:13:55.258Z,100562.16
2022-08-03T22:16:24.751Z,100559.66
2022-08-03T22:18:54.794Z,100518.03
2022-08-03T22:21:36.423Z,100513.19
2022-08-03T22:24:07.527Z,100541.66
2022-08-03T22:27:04.898Z,100510.16
2022-08-03T22:29:35.238Z,100531.09
2022-08-03T22:32:04.563Z,100552.44
2022-08-03T22:34:35.551Z,100544.91
2022-08-03T22:37:08.112Z,100520.19
2022-08-03T22:39:40.190Z,100558.47
2022-08-03T22:42:09.576Z,100562.25
2022-08-03T22:44:38.568Z,100559.78
2022-08-03T22:47:07.819Z,100560.84
2022-08-03T22:49:39.027Z,100561.06
2022-08-03T22:52:11.748Z,100571.94
2022-08-03T22:54:41.509Z,100564.94
2022-08-03T22:57:10.538Z,100509.69
2022-08-03T22:59:42.005Z,100562.66
2022-08-03T23:02:20.191Z,100555.44
2022-08-03T23:04:56.321Z,100524.69
2022-08-03T23:07:33.531Z,100557.16
2022-08-03T23:10:05.494Z,100563.84
2022-08-03T23:12:37.848Z,100559.53
2022-08-03T23:15:10.180Z,100556.50
2022-08-03T23:17:58.210Z,100564.47
2022-08-03T23:20:29.675Z,100512.75
2022-08-03T23:22:59.833Z,100559.97
2022-08-03T23:25:29.181Z,100563.63
2022-08-03T23:28:05.615Z,100564.59
2022-08-03T23:30:38.810Z,100572.75
2022-08-03T23:33:10.623Z,100524.94
2022-08-03T23:36:28.211Z,100562.84
2022-08-03T23:38:50.879Z,100543.94
2022-08-03T23:41:20.300Z,100566.41
2022-08-03T23:43:53.465Z,100564.91
2022-08-03T23:46:24.765Z,100546.16
2022-08-03T23:48:56.710Z,100564.44
2022-08-03T23:51:40.320Z,100564.44
2022-08-03T23:54:25.681Z,100570.13
2022-08-03T23:57:07.533Z,100565.88
2022-08-03T23:59:50.753Z,100559.72
